Time;durP1;ratioP1;P1;durP2;ratioP2;P2;SDS_P1;SDS_P2;PMS_P1;PMS_P2;Temp;Humidity;BMP_temperature;BMP_pressure;BME280_temperature;BME280_humidity;BME280_pressure;Samples;Min_cycle;Max_cycle;Signal;HPM_P1;HPM_P2
2022/12/12 00:00:50;;;;;;;23.87;10.82;;;3.20;68.00;;;;;;2328869;54;20911;-74
2022/12/12 00:03:16;;;;;;;27.85;12.40;;;3.10;67.80;;;;;;2328830;54;20908;-71
2022/12/12 00:05:43;;;;;;;27.75;12.85;;;3.10;67.80;;;;;;2436745;53;21007;-72
2022/12/12 00:08:09;;;;;;;29.95;13.48;;;3.10;67.80;;;;;;2328733;54;20923;-73
2022/12/12 00:10:35;;;;;;;30.83;13.68;;;3.10;67.90;;;;;;2328754;54;21556;-72
2022/12/12 00:13:02;;;;;;;23.80;11.85;;;3.10;67.90;;;;;;2331947;54;21019;-72
2022/12/12 00:15:31;;;;;;;24.23;10.88;;;3.00;67.90;;;;;;2359283;52;21417;-71
2022/12/12 00:17:57;;;;;;;22.80;11.00;;;3.00;67.90;;;;;;2328365;54;21090;-74
2022/12/12 00:20:24;;;;;;;27.52;12.50;;;3.00;67.90;;;;;;2470063;53;20903;-72
2022/12/12 00:22:50;;;;;;;29.75;14.05;;;3.00;67.80;;;;;;2328371;54;20959;-71
2022/12/12 00:25:17;;;;;;;24.58;11.55;;;3.00;67.90;;;;;;2328776;54;20907;-73
2022/12/12 00:27:43;;;;;;;28.73;13.13;;;3.00;68.00;;;;;;2328516;54;21039;-73
2022/12/12 00:30:10;;;;;;;24.70;11.12;;;3.00;68.10;;;;;;2328542;54;21054;-73
2022/12/12 00:32:36;;;;;;;25.58;11.80;;;3.00;68.00;;;;;;2572807;53;22128;-72
2022/12/12 00:35:04;;;;;;;19.85;9.68;;;2.90;67.90;;;;;;2328558;54;20923;-74
2022/12/12 00:37:30;;;;;;;26.45;12.02;;;2.90;67.90;;;;;;2328960;54;20932;-73
2022/12/12 00:39:57;;;;;;;22.70;11.23;;;2.90;67.90;;;;;;2572723;53;20915;-73
2022/12/12 00:42:26;;;;;;;24.63;11.40;;;2.90;67.90;;;;;;2329059;54;20938;-73
2022/12/12 00:44:52;;;;;;;27.02;11.88;;;2.90;67.90;;;;;;2330787;54;20967;-72
2022/12/12 00:47:19;;;;;;;23.50;10.68;;;2.90;67.90;;;;;;2573493;53;20916;-71
2022/12/12 00:49:46;;;;;;;26.85;11.68;;;2.80;67.80;;;;;;2328731;54;20907;-72
2022/12/12 00:52:14;;;;;;;27.55;12.27;;;2.80;67.80;;;;;;2329044;54;20974;-71
2022/12/12 00:54:41;;;;;;;25.30;10.93;;;2.80;67.80;;;;;;2328832;54;20950;-72
2022/12/12 00:57:07;;;;;;;26.25;12.02;;;2.80;67.80;;;;;;2328438;54;20943;-71
2022/12/12 00:59:34;;;;;;;33.42;15.10;;;2.80;68.00;;;;;;2328191;54;20899;-72
2022/12/12 01:02:01;;;;;;;31.80;15.63;;;2.80;68.10;;;;;;2364198;53;21908;-72
2022/12/12 01:04:28;;;;;;;34.50;15.75;;;2.80;68.10;;;;;;2329329;54;20879;-72
2022/12/12 01:06:55;;;;;;;33.22;15.70;;;2.80;68.10;;;;;;2328167;54;20915;-72
2022/12/12 01:09:21;;;;;;;31.10;15.15;;;2.80;68.10;;;;;;2415721;53;21202;-74
2022/12/12 01:11:47;;;;;;;31.98;15.25;;;2.80;68.10;;;;;;2328331;54;20978;-74
2022/12/12 01:14:14;;;;;;;29.83;14.02;;;2.80;68.30;;;;;;2328707;54;21422;-73
2022/12/12 01:16:44;;;;;;;27.00;13.30;;;2.80;68.20;;;;;;2328510;54;20950;-74
2022/12/12 01:19:11;;;;;;;26.55;13.00;;;2.80;68.20;;;;;;2328850;54;21062;-74
2022/12/12 01:21:38;;;;;;;26.70;12.25;;;2.80;68.30;;;;;;2365119;53;21406;-73
2022/12/12 01:24:06;;;;;;;31.33;13.38;;;2.80;68.30;;;;;;2328212;54;21546;-74
2022/12/12 01:26:33;;;;;;;33.00;15.00;;;2.80;68.30;;;;;;2332140;53;21926;-72
2022/12/12 01:29:00;;;;;;;33.65;14.63;;;2.80;68.40;;;;;;2335013;54;20932;-72
2022/12/12 01:31:27;;;;;;;26.52;11.80;;;2.80;68.40;;;;;;2519384;53;20884;-74
2022/12/12 01:33:53;;;;;;;29.52;13.75;;;2.80;68.40;;;;;;2328112;54;20891;-71
2022/12/12 01:36:22;;;;;;;24.10;11.20;;;2.80;68.40;;;;;;2520099;53;21027;-73
2022/12/12 01:38:50;;;;;;;25.75;11.35;;;2.80;68.20;;;;;;2328407;54;20924;-73
2022/12/12 01:41:17;;;;;;;28.80;12.27;;;2.80;68.10;;;;;;2572627;53;21854;-71
2022/12/12 01:43:44;;;;;;;26.80;11.43;;;2.80;68.10;;;;;;2329107;54;20888;-72
2022/12/12 01:46:42;;;;;;;25.12;11.50;;;2.80;68.10;;;;;;2345598;53;21038;-74
2022/12/12 01:49:20;;;;;;;21.45;10.45;;;2.80;68.00;;;;;;2328265;54;20926;-72
2022/12/12 01:51:47;;;;;;;22.23;10.30;;;2.80;68.20;;;;;;2332412;53;20958;-72
2022/12/12 01:54:15;;;;;;;21.10;9.98;;;2.80;68.10;;;;;;2335384;53;21036;-72
2022/12/12 01:56:42;;;;;;;21.90;9.98;;;2.80;68.20;;;;;;2335467;53;21038;-71
2022/12/12 01:59:15;;;;;;;20.92;10.20;;;2.80;68.20;;;;;;2331351;53;20967;-71
2022/12/12 02:01:42;;;;;;;18.87;8.48;;;2.80;68.10;;;;;;2344603;53;20986;-73
2022/12/12 02:04:11;;;;;;;18.90;8.43;;;2.80;67.90;;;;;;2329237;54;20930;-73
2022/12/12 02:06:39;;;;;;;21.20;9.25;;;2.70;67.70;;;;;;2392236;53;20946;-72
2022/12/12 02:09:08;;;;;;;20.27;9.02;;;2.80;67.80;;;;;;2328781;54;20995;-73
2022/12/12 02:11:41;;;;;;;18.90;9.30;;;2.70;67.70;;;;;;2357475;53;20900;-72
2022/12/12 02:14:08;;;;;;;19.58;9.07;;;2.70;67.80;;;;;;2328468;54;21038;-72
2022/12/12 02:17:13;;;;;;;22.42;10.52;;;2.70;67.90;;;;;;2335049;53;20967;-73
2022/12/12 02:24:38;;;;;;;17.90;8.30;;;2.70;67.70;;;;;;2329010;54;20947;-73
2022/12/12 02:27:35;;;;;;;15.20;6.75;;;2.70;67.30;;;;;;2328860;54;21038;-72
2022/12/12 02:30:13;;;;;;;15.07;6.75;;;2.70;68.30;;;;;;2328787;53;21011;-71
2022/12/12 02:33:17;;;;;;;18.33;8.73;;;2.70;67.60;;;;;;2405978;53;20951;-73
2022/12/12 02:36:11;;;;;;;19.87;9.60;;;2.70;67.50;;;;;;2329165;54;20975;-74
2022/12/12 02:43:36;;;;;;;17.83;8.38;;;2.70;67.70;;;;;;2455072;53;21442;-72
2022/12/12 02:47:38;;;;;;;18.75;7.40;;;2.70;67.20;;;;;;2573099;53;21502;-71
2022/12/12 02:50:10;;;;;;;15.48;6.20;;;2.60;67.80;;;;;;2335504;53;21023;-73
2022/12/12 02:52:36;;;;;;;22.00;9.70;;;2.60;67.80;;;;;;2328430;54;20915;-71
2022/12/12 02:55:04;;;;;;;16.48;7.22;;;2.60;68.00;;;;;;2328720;54;20935;-74
2022/12/12 02:57:32;;;;;;;23.20;10.43;;;2.60;68.00;;;;;;2328954;54;20978;-72
2022/12/12 03:00:11;;;;;;;20.02;9.23;;;2.60;68.10;;;;;;2572978;53;20938;-73
2022/12/12 03:10:28;;;;;;;18.55;8.88;;;2.60;67.90;;;;;;2313732;55;20971;-73
2022/12/12 03:13:48;;;;;;;15.52;7.25;;;2.60;67.60;;;;;;2573117;53;21046;-72
2022/12/12 03:18:55;;;;;;;14.73;6.55;;;2.70;68.00;;;;;;2329034;54;20986;-73
2022/12/12 03:21:53;;;;;;;19.00;6.70;;;2.60;67.20;;;;;;2435115;53;20903;-73
2022/12/12 03:24:38;;;;;;;15.10;6.80;;;2.70;67.70;;;;;;2329281;54;21029;-73
2022/12/12 03:27:44;;;;;;;15.63;7.10;;;2.60;67.60;;;;;;2573266;53;20919;-71
2022/12/12 03:30:16;;;;;;;15.63;7.10;;;2.60;67.30;;;;;;2459825;53;20895;-73
2022/12/12 03:32:57;;;;;;;15.85;7.30;;;2.60;67.60;;;;;;2347028;53;20947;-73
2022/12/12 03:35:36;;;;;;;15.60;7.05;;;2.60;67.50;;;;;;2329321;54;20947;-74
2022/12/12 03:38:17;;;;;;;20.48;8.25;;;2.60;67.30;;;;;;2462960;53;20932;-72
2022/12/12 03:40:54;;;;;;;19.98;8.50;;;2.50;67.30;;;;;;2328812;54;20892;-73
2022/12/12 03:45:06;;;;;;;17.20;7.72;;;2.50;67.10;;;;;;2383764;53;20951;-72
2022/12/12 03:47:44;;;;;;;15.35;6.87;;;2.50;66.50;;;;;;2328897;54;21880;-72
2022/12/12 03:50:15;;;;;;;17.45;7.57;;;2.40;67.00;;;;;;2464738;53;21098;-71
2022/12/12 03:53:17;;;;;;;14.90;6.87;;;2.40;67.10;;;;;;2328658;54;21478;-71
2022/12/12 03:57:22;;;;;;;14.65;6.57;;;2.40;67.10;;;;;;2328676;54;20934;-74
2022/12/12 03:59:56;;;;;;;17.52;8.27;;;2.40;67.20;;;;;;2573067;53;20934;-75
2022/12/12 04:02:29;;;;;;;20.27;9.38;;;2.30;67.30;;;;;;2434553;53;21006;-73
2022/12/12 04:05:09;;;;;;;21.33;9.52;;;2.40;67.50;;;;;;2328474;54;20912;-72
2022/12/12 04:07:41;;;;;;;19.25;9.05;;;2.30;67.50;;;;;;2336569;53;22050;-73
2022/12/12 04:13:41;;;;;;;20.83;9.60;;;2.30;67.70;;;;;;2330878;53;20979;-73
2022/12/12 04:16:24;;;;;;;14.87;6.80;;;2.30;67.80;;;;;;2328801;54;20939;-72
2022/12/12 04:19:09;;;;;;;16.70;7.60;;;2.40;67.90;;;;;;2328633;54;21073;-72
2022/12/12 04:29:28;;;;;;;15.35;6.95;;;2.40;67.10;;;;;;2329057;54;20999;-70
2022/12/12 04:32:47;;;;;;;17.00;7.20;;;2.30;67.20;;;;;;2328716;54;20970;-71
2022/12/12 04:35:22;;;;;;;14.65;7.00;;;2.30;67.30;;;;;;2328810;54;21087;-72
2022/12/12 04:37:59;;;;;;;17.70;7.82;;;2.30;67.30;;;;;;2328778;54;20960;-72
2022/12/12 04:40:49;;;;;;;13.55;6.10;;;2.30;67.30;;;;;;2328756;54;20947;-71
2022/12/12 04:43:18;;;;;;;13.05;6.25;;;2.20;67.30;;;;;;2328630;54;20935;-72
2022/12/12 04:45:49;;;;;;;15.68;7.10;;;2.20;67.30;;;;;;2328662;54;21058;-72
2022/12/12 04:48:19;;;;;;;13.20;6.22;;;2.20;67.30;;;;;;2329393;54;20978;-72
2022/12/12 04:50:50;;;;;;;14.13;6.47;;;2.20;67.30;;;;;;2450866;53;21106;-72
2022/12/12 04:53:17;;;;;;;14.32;6.60;;;2.20;67.30;;;;;;2328849;54;20922;-71
2022/12/12 04:55:48;;;;;;;13.02;6.45;;;2.20;67.40;;;;;;2329084;54;21038;-71
2022/12/12 04:58:14;;;;;;;15.30;7.07;;;2.20;67.30;;;;;;2329132;54;20913;-74
2022/12/12 05:00:57;;;;;;;16.62;7.53;;;2.20;67.40;;;;;;2329644;54;21042;-72
2022/12/12 05:03:32;;;;;;;;;;;2.20;67.30;;;;;;2577676;53;20958;-71
2022/12/12 05:06:01;;;;;;;14.23;6.85;;;2.20;66.70;;;;;;2329194;54;20114;-71
2022/12/12 05:08:30;;;;;;;11.63;6.03;;;2.00;67.00;;;;;;2447198;53;21948;-72
2022/12/12 05:10:59;;;;;;;14.63;6.82;;;2.10;67.00;;;;;;2328727;54;21083;-72
2022/12/12 05:13:35;;;;;;;14.32;6.80;;;2.10;67.10;;;;;;2447151;53;21014;-75
2022/12/12 05:16:03;;;;;;;14.23;6.80;;;2.10;67.20;;;;;;2332103;54;21999;-71
2022/12/12 05:18:30;;;;;;;14.10;6.90;;;2.00;67.10;;;;;;2387535;54;20980;-72
2022/12/12 05:20:56;;;;;;;13.40;7.03;;;2.00;67.10;;;;;;2341037;53;20907;-73
2022/12/12 05:23:27;;;;;;;14.80;7.53;;;2.00;67.10;;;;;;2387778;53;21077;-74
2022/12/12 05:25:56;;;;;;;15.55;7.15;;;2.00;67.10;;;;;;2334659;53;20912;-74
2022/12/12 05:28:22;;;;;;;14.23;6.82;;;2.00;67.10;;;;;;2340121;52;20967;-72
2022/12/12 05:30:50;;;;;;;15.35;7.12;;;2.00;67.00;;;;;;2576984;52;21100;-72
2022/12/12 05:33:17;;;;;;;13.18;6.68;;;1.90;66.90;;;;;;2573577;52;21019;-73
2022/12/12 05:35:43;;;;;;;13.85;7.15;;;1.90;66.90;;;;;;2350060;53;20903;-72
2022/12/12 05:38:10;;;;;;;14.27;6.60;;;1.90;66.90;;;;;;2572950;53;20923;-73
2022/12/12 05:40:37;;;;;;;14.10;6.65;;;1.90;66.90;;;;;;2328562;54;21331;-73
2022/12/12 05:43:03;;;;;;;14.43;6.65;;;1.90;67.00;;;;;;2573418;53;20915;-71
2022/12/12 05:45:30;;;;;;;11.73;6.18;;;1.80;67.00;;;;;;2574099;53;20989;-74
2022/12/12 05:47:58;;;;;;;12.82;6.05;;;1.80;67.00;;;;;;2331709;53;20899;-70
2022/12/12 05:50:25;;;;;;;14.82;7.05;;;1.80;67.10;;;;;;2329054;54;20974;-75
2022/12/12 05:52:51;;;;;;;13.48;5.95;;;1.80;67.10;;;;;;2442075;53;21829;-74
2022/12/12 05:55:18;;;;;;;14.45;6.90;;;1.80;67.10;;;;;;2328912;54;20971;-74
2022/12/12 05:57:44;;;;;;;15.10;7.62;;;1.80;67.10;;;;;;2573548;53;20986;-74
2022/12/12 06:00:13;;;;;;;14.43;7.68;;;1.80;67.00;;;;;;2329017;54;21022;-72
2022/12/12 06:02:39;;;;;;;13.65;6.72;;;1.70;67.00;;;;;;2573330;53;21966;-72
2022/12/12 06:05:08;;;;;;;13.68;7.30;;;1.70;66.90;;;;;;2328512;54;20967;-73
2022/12/12 06:07:36;;;;;;;14.23;6.62;;;1.70;67.00;;;;;;2455832;53;20994;-73
2022/12/12 06:10:10;;;;;;;14.65;6.97;;;1.70;67.00;;;;;;2328812;54;20906;-72
2022/12/12 06:12:39;;;;;;;14.27;6.62;;;1.70;67.00;;;;;;2350831;53;21022;-73
2022/12/12 06:15:06;;;;;;;14.23;6.95;;;1.70;67.00;;;;;;2330323;53;20916;-74
2022/12/12 06:17:33;;;;;;;14.57;7.00;;;1.60;67.70;;;;;;2328980;54;20971;-72
2022/12/12 06:20:00;;;;;;;13.40;6.72;;;1.70;67.10;;;;;;2334510;53;21019;-74
2022/12/12 06:22:26;;;;;;;16.48;7.68;;;1.70;67.10;;;;;;2422072;52;21552;-71
2022/12/12 06:24:53;;;;;;;13.45;6.65;;;1.60;67.00;;;;;;2335275;53;20993;-72
2022/12/12 06:27:19;;;;;;;15.20;7.28;;;1.60;66.90;;;;;;2374819;52;21026;-72
2022/12/12 06:29:46;;;;;;;13.65;6.60;;;1.60;66.90;;;;;;2331624;53;21592;-72
2022/12/12 06:32:14;;;;;;;15.52;6.80;;;1.60;66.80;;;;;;2355715;53;21952;-73
2022/12/12 06:34:40;;;;;;;15.73;7.40;;;1.60;66.80;;;;;;2328988;54;21011;-73
2022/12/12 06:37:07;;;;;;;11.95;6.40;;;1.60;66.90;;;;;;2330301;54;20934;-72
2022/12/12 06:39:35;;;;;;;14.95;6.72;;;1.50;66.80;;;;;;2329188;54;20976;-73
2022/12/12 06:42:02;;;;;;;14.93;7.20;;;1.50;66.90;;;;;;2347632;53;21919;-71
2022/12/12 06:44:29;;;;;;;11.95;6.28;;;1.50;67.00;;;;;;2446902;53;21965;-76
2022/12/12 06:46:55;;;;;;;12.80;6.55;;;1.50;67.00;;;;;;2353740;53;21122;-75
2022/12/12 06:49:22;;;;;;;13.93;6.60;;;1.50;67.10;;;;;;2329187;54;21451;-75
2022/12/12 06:51:49;;;;;;;13.70;6.90;;;1.50;67.10;;;;;;2329208;54;20939;-70
2022/12/12 06:54:17;;;;;;;16.10;7.20;;;1.50;67.10;;;;;;2329186;54;20951;-72
2022/12/12 06:56:46;;;;;;;17.60;7.97;;;1.50;67.20;;;;;;2480785;53;21042;-71
2022/12/12 06:59:17;;;;;;;13.73;6.82;;;1.50;67.20;;;;;;2329043;54;21552;-73
2022/12/12 07:01:44;;;;;;;14.43;6.75;;;1.50;67.10;;;;;;2335551;53;21008;-74
2022/12/12 07:04:12;;;;;;;16.15;7.35;;;1.50;67.10;;;;;;2329800;54;21572;-73
2022/12/12 07:06:38;;;;;;;14.95;7.15;;;1.50;67.10;;;;;;2574146;53;20927;-70
2022/12/12 07:09:05;;;;;;;14.13;6.95;;;1.50;67.10;;;;;;2393682;52;20983;-71
2022/12/12 07:11:31;;;;;;;15.80;7.53;;;1.50;67.00;;;;;;2336262;53;21081;-71
2022/12/12 07:13:58;;;;;;;12.50;6.43;;;1.50;67.00;;;;;;2329253;54;20955;-70
2022/12/12 07:16:26;;;;;;;14.35;6.90;;;1.40;67.00;;;;;;2473167;53;20966;-71
2022/12/12 07:18:53;;;;;;;15.43;7.12;;;1.50;67.10;;;;;;2332011;53;21794;-74
2022/12/12 07:21:19;;;;;;;13.40;6.12;;;1.40;67.10;;;;;;2329443;54;21019;-71
2022/12/12 07:23:46;;;;;;;9.63;5.25;;;1.40;67.10;;;;;;2330870;54;20947;-73
2022/12/12 07:26:17;;;;;;;15.07;7.25;;;1.40;67.10;;;;;;2369602;53;20923;-72
2022/12/12 07:28:44;;;;;;;11.90;5.87;;;1.40;67.10;;;;;;2469435;53;20986;-70
2022/12/12 07:31:13;;;;;;;13.80;6.80;;;1.40;67.10;;;;;;2372519;53;20901;-71
2022/12/12 07:33:40;;;;;;;17.95;7.82;;;1.40;67.10;;;;;;2338191;54;20971;-74
2022/12/12 07:36:09;;;;;;;11.82;6.15;;;1.40;67.20;;;;;;2460554;53;20980;-74
2022/12/12 07:38:38;;;;;;;16.98;7.20;;;1.40;67.40;;;;;;2459002;53;20992;-74
2022/12/12 07:41:06;;;;;;;13.30;6.40;;;1.40;67.40;;;;;;2534424;52;21007;-73
2022/12/12 07:43:37;;;;;;;13.88;6.95;;;1.40;67.40;;;;;;2341111;54;21529;-74
2022/12/12 07:46:06;;;;;;;13.32;6.30;;;1.40;67.30;;;;;;2579018;53;20919;-74
2022/12/12 07:48:35;;;;;;;12.95;5.80;;;1.40;67.20;;;;;;2372149;53;21004;-72
2022/12/12 07:51:02;;;;;;;13.82;5.95;;;1.40;67.30;;;;;;2521550;52;20943;-74
2022/12/12 07:53:31;;;;;;;13.10;6.15;;;1.40;67.30;;;;;;2339358;53;20943;-72
2022/12/12 07:55:58;;;;;;;12.85;6.57;;;1.40;67.40;;;;;;2399938;53;20988;-72
2022/12/12 07:58:25;;;;;;;13.40;6.75;;;1.40;67.50;;;;;;2338200;53;20959;-70
2022/12/12 08:00:52;;;;;;;13.85;6.28;;;1.40;67.50;;;;;;2563069;53;20954;-72
2022/12/12 08:03:19;;;;;;;13.80;6.78;;;1.40;67.60;;;;;;2339030;54;20927;-70
2022/12/12 08:05:48;;;;;;;17.73;7.82;;;1.40;67.50;;;;;;2338304;54;21455;-71
2022/12/12 08:08:17;;;;;;;12.75;6.40;;;1.50;67.60;;;;;;2338747;54;20891;-72
2022/12/12 08:10:44;;;;;;;11.30;5.72;;;1.50;67.50;;;;;;2338924;54;21372;-75
2022/12/12 08:13:11;;;;;;;12.10;6.15;;;1.50;67.50;;;;;;2338967;54;20967;-74
2022/12/12 08:15:37;;;;;;;13.77;6.50;;;1.50;67.60;;;;;;2358334;53;21614;-74
2022/12/12 08:18:04;;;;;;;14.68;6.82;;;1.50;67.70;;;;;;2415116;53;21647;-73
2022/12/12 08:20:31;;;;;;;12.32;6.12;;;1.50;67.70;;;;;;2477211;53;21421;-74
2022/12/12 08:22:58;;;;;;;14.32;6.55;;;1.50;67.80;;;;;;2338353;54;20891;-74
2022/12/12 08:25:24;;;;;;;12.70;6.22;;;1.60;68.00;;;;;;2342828;54;21721;-73
2022/12/12 08:27:50;;;;;;;13.10;6.32;;;1.60;67.90;;;;;;2344890;53;21026;-72
2022/12/12 08:30:17;;;;;;;12.20;6.20;;;1.60;67.90;;;;;;2506368;53;21502;-75
2022/12/12 08:32:44;;;;;;;16.85;7.80;;;1.60;68.00;;;;;;2336915;54;20863;-73
2022/12/12 08:35:12;;;;;;;17.52;8.48;;;1.70;68.00;;;;;;2340229;53;21357;-72
2022/12/12 08:37:40;;;;;;;21.45;8.98;;;1.70;68.10;;;;;;2323122;55;21800;-72
2022/12/12 08:40:07;;;;;;;19.48;9.57;;;1.70;68.10;;;;;;2391474;53;21035;-73
2022/12/12 08:42:33;;;;;;;18.25;8.93;;;1.70;68.10;;;;;;2338818;54;20884;-74
2022/12/12 08:45:02;;;;;;;19.62;8.68;;;1.70;68.20;;;;;;2338327;54;21997;-75
2022/12/12 08:47:30;;;;;;;16.80;8.35;;;1.80;68.30;;;;;;2338173;54;21824;-73
2022/12/12 08:49:56;;;;;;;17.40;8.32;;;1.80;68.30;;;;;;2348630;53;21834;-72
2022/12/12 08:52:23;;;;;;;15.90;7.87;;;1.80;68.10;;;;;;2338880;54;21441;-72
2022/12/12 08:54:51;;;;;;;16.65;7.75;;;1.80;68.00;;;;;;2550525;53;21254;-74
2022/12/12 08:57:22;;;;;;;14.80;7.62;;;1.90;68.10;;;;;;2338855;54;21836;-73
2022/12/12 08:59:51;;;;;;;14.13;7.72;;;1.90;68.10;;;;;;2414187;53;20959;-72
2022/12/12 09:02:18;;;;;;;14.98;7.85;;;1.90;68.10;;;;;;2405245;52;21025;-76
2022/12/12 09:04:44;;;;;;;16.02;7.32;;;1.90;68.00;;;;;;2340146;53;21023;-74
2022/12/12 09:07:11;;;;;;;14.43;7.03;;;1.90;68.00;;;;;;2338972;54;21436;-73
2022/12/12 09:09:38;;;;;;;15.98;7.47;;;1.90;67.90;;;;;;2584334;53;21799;-75
2022/12/12 09:12:05;;;;;;;13.48;6.80;;;2.00;68.00;;;;;;2338872;54;20967;-74
2022/12/12 09:14:33;;;;;;;13.32;6.60;;;2.00;67.90;;;;;;2373849;53;20899;-71
2022/12/12 09:17:03;;;;;;;14.57;7.47;;;2.00;67.90;;;;;;2339041;54;20978;-72
2022/12/12 09:19:30;;;;;;;13.70;7.10;;;2.00;68.00;;;;;;2339097;54;20942;-74
2022/12/12 09:21:56;;;;;;;15.48;7.10;;;2.00;67.90;;;;;;2338661;54;20990;-72
2022/12/12 09:24:24;;;;;;;15.63;7.03;;;2.00;67.90;;;;;;2344610;53;21322;-72
2022/12/12 09:26:52;;;;;;;14.65;7.20;;;2.00;67.80;;;;;;2338451;54;20931;-70
2022/12/12 09:29:19;;;;;;;13.95;7.00;;;2.10;68.00;;;;;;2584580;53;20907;-75
2022/12/12 09:31:45;;;;;;;13.80;6.78;;;2.00;67.80;;;;;;2338775;54;21400;-73
2022/12/12 09:34:12;;;;;;;13.13;7.45;;;2.10;67.90;;;;;;2428466;53;20943;-71
2022/12/12 09:36:39;;;;;;;10.95;6.25;;;2.10;67.90;;;;;;2339202;54;20887;-73
2022/12/12 09:39:05;;;;;;;13.70;6.75;;;2.10;67.80;;;;;;2419329;53;21370;-70
2022/12/12 09:41:33;;;;;;;10.95;6.03;;;2.10;67.80;;;;;;2338841;54;20948;-73
2022/12/12 09:44:10;;;;;;;11.45;6.30;;;2.10;67.80;;;;;;2338646;54;20963;-72
2022/12/12 09:46:42;;;;;;;12.25;5.90;;;2.10;67.90;;;;;;2338696;54;21002;-73
2022/12/12 09:51:06;;;;;;;12.80;6.28;;;2.10;67.90;;;;;;2339299;54;20927;-71
2022/12/12 09:53:33;;;;;;;12.07;6.00;;;2.20;67.80;;;;;;2339213;54;20891;-74
2022/12/12 09:56:09;;;;;;;12.70;5.87;;;2.20;67.80;;;;;;2338697;54;20927;-73
2022/12/12 09:59:39;;;;;;;15.38;6.93;;;2.20;67.70;;;;;;2338811;54;20915;-74
2022/12/12 10:03:57;;;;;;;16.48;8.13;;;2.20;67.30;;;;;;2338909;54;20984;-74
2022/12/12 10:06:24;;;;;;;13.02;6.00;;;2.20;67.30;;;;;;2339159;54;20911;-72
2022/12/12 10:10:40;;;;;;;11.75;6.28;;;2.20;67.70;;;;;;2338792;54;20930;-72
2022/12/12 10:13:19;;;;;;;15.55;7.57;;;2.20;66.90;;;;;;2338954;54;20942;-71
2022/12/12 10:15:48;;;;;;;15.07;6.90;;;2.20;67.60;;;;;;2338162;54;20975;-72
2022/12/12 10:18:26;;;;;;;12.52;6.22;;;2.20;67.80;;;;;;2417896;53;20983;-72
2022/12/12 10:20:57;;;;;;;13.15;6.85;;;2.20;67.70;;;;;;2343262;53;21799;-74
2022/12/12 10:23:43;;;;;;;11.12;6.30;;;2.30;68.00;;;;;;2340319;53;20982;-71
2022/12/12 10:26:25;;;;;;;11.30;6.15;;;2.30;68.00;;;;;;2441278;53;20945;-74
2022/12/12 10:28:53;;;;;;;15.10;5.28;;;2.30;67.90;;;;;;2556867;52;20990;-75
2022/12/12 10:32:01;;;;;;;12.80;5.37;;;2.30;68.10;;;;;;2341758;53;20996;-71
2022/12/12 10:35:40;;;;;;;10.25;4.90;;;2.30;67.90;;;;;;2338771;53;20919;-71
2022/12/12 10:39:56;;;;;;;12.00;5.50;;;2.40;67.80;;;;;;2443211;53;20910;-71
2022/12/12 10:42:40;;;;;;;8.95;4.97;;;2.40;67.50;;;;;;2338953;54;20915;-73
2022/12/12 10:45:26;;;;;;;8.18;4.28;;;2.40;68.30;;;;;;2339036;54;20891;-75
2022/12/12 10:47:52;;;;;;;7.65;4.07;;;2.50;68.20;;;;;;2338621;54;20948;-73
2022/12/12 10:50:39;;;;;;;11.52;4.70;;;2.50;68.50;;;;;;2413435;53;20994;-71
2022/12/12 10:53:07;;;;;;;11.10;5.60;;;2.50;68.50;;;;;;2443983;53;20911;-71
2022/12/12 10:55:40;;;;;;;11.57;5.80;;;2.50;68.70;;;;;;2442505;53;21423;-74
2022/12/12 10:58:09;;;;;;;15.90;6.85;;;2.60;68.70;;;;;;2339132;54;20903;-75
2022/12/12 11:00:39;;;;;;;13.68;7.15;;;2.70;68.90;;;;;;2364899;53;20974;-74
2022/12/12 11:03:29;;;;;;;20.55;11.75;;;2.70;68.90;;;;;;2342036;53;20928;-73
2022/12/12 11:05:55;;;;;;;22.23;14.35;;;2.70;68.60;;;;;;2584272;53;20935;-73
2022/12/12 11:08:28;;;;;;;19.30;9.25;;;2.70;68.70;;;;;;2415068;53;21842;-73
2022/12/12 11:11:06;;;;;;;35.58;18.62;;;2.70;68.70;;;;;;2338711;54;21070;-75
2022/12/12 11:13:49;;;;;;;19.37;11.18;;;2.80;68.70;;;;;;2343518;53;21072;-74
2022/12/12 11:16:17;;;;;;;16.25;7.90;;;2.80;68.70;;;;;;2340510;53;20931;-71
2022/12/12 11:19:10;;;;;;;17.92;8.73;;;2.90;69.00;;;;;;2338519;54;20939;-71
2022/12/12 11:21:38;;;;;;;14.77;7.57;;;2.90;69.00;;;;;;2338776;54;20927;-72
2022/12/12 11:24:13;;;;;;;12.25;7.50;;;3.00;69.40;;;;;;2345077;53;20958;-71
2022/12/12 11:26:48;;;;;;;14.63;7.68;;;3.00;69.30;;;;;;2338968;54;21000;-74
2022/12/12 11:31:54;;;;;;;13.35;6.87;;;3.00;69.20;;;;;;2338958;54;20904;-74
2022/12/12 11:34:21;;;;;;;13.80;7.18;;;3.10;68.10;;;;;;2339239;54;20955;-72
2022/12/12 11:36:48;;;;;;;17.33;8.02;;;3.10;69.00;;;;;;2338251;54;21798;-73
2022/12/12 11:39:37;;;;;;;15.27;7.60;;;3.20;69.40;;;;;;2293977;54;2746764;-71
2022/12/12 11:42:36;;;;;;;14.63;7.30;;;3.20;69.20;;;;;;2502605;53;21007;-73
2022/12/12 11:45:35;;;;;;;14.73;7.22;;;3.30;69.40;;;;;;2339883;53;20939;-72
2022/12/12 11:48:31;;;;;;;12.70;6.57;;;3.30;68.60;;;;;;2404028;53;20959;-74
2022/12/12 11:50:58;;;;;;;12.93;6.85;;;3.40;68.60;;;;;;2338201;54;20967;-72
2022/12/12 11:53:24;;;;;;;13.35;6.12;;;3.40;68.90;;;;;;2358739;53;21781;-74
2022/12/12 11:56:15;;;;;;;10.80;5.93;;;3.40;68.90;;;;;;2338233;54;20959;-73
2022/12/12 11:58:45;;;;;;;12.55;6.28;;;3.40;68.70;;;;;;2441662;53;20977;-74
2022/12/12 12:01:20;;;;;;;15.23;7.22;;;3.40;68.60;;;;;;2339355;53;21011;-73
2022/12/12 12:04:08;;;;;;;16.45;7.97;;;3.50;68.60;;;;;;2477595;53;20971;-74
2022/12/12 12:06:43;;;;;;;12.00;6.70;;;3.40;68.30;;;;;;2345111;53;20991;-71
2022/12/12 12:11:55;;;;;;;13.45;7.30;;;3.40;68.40;;;;;;2582662;53;21410;-73
2022/12/12 12:23:01;;;;;;;12.95;5.75;;;3.50;67.70;;;;;;2338664;54;20919;-74
2022/12/12 12:26:12;;;;;;;9.70;4.37;;;3.50;67.60;;;;;;2500536;53;21433;-74
2022/12/12 12:29:18;;;;;;;14.77;6.80;;;3.60;68.00;;;;;;2584314;53;20970;-73
2022/12/12 12:32:25;;;;;;;16.10;7.85;;;3.60;68.30;;;;;;2338780;54;21802;-73
2022/12/12 12:38:34;;;;;;;12.95;6.72;;;3.60;68.40;;;;;;2339149;54;20899;-74
2022/12/12 12:41:30;;;;;;;13.05;5.65;;;3.60;68.90;;;;;;2353889;53;20958;-73
2022/12/12 12:44:34;;;;;;;12.55;6.75;;;3.70;69.10;;;;;;2359386;53;21006;-73
2022/12/12 12:47:10;;;;;;;16.42;6.90;;;3.70;68.90;;;;;;2352917;53;21710;-74
2022/12/12 12:49:45;;;;;;;17.87;8.23;;;3.70;69.00;;;;;;2338485;54;21416;-74
2022/12/12 12:52:17;;;;;;;13.82;7.60;;;3.70;69.60;;;;;;2390164;53;20973;-74
2022/12/12 12:54:49;;;;;;;14.15;7.30;;;3.70;69.10;;;;;;2353745;53;21494;-74
2022/12/12 12:57:54;;;;;;;11.27;5.97;;;3.80;69.10;;;;;;2473518;53;21700;-73
2022/12/12 13:00:23;;;;;;;13.40;6.97;;;3.80;68.90;;;;;;2338611;54;21698;-73
2022/12/12 13:03:26;;;;;;;14.38;7.47;;;3.80;69.00;;;;;;2338648;54;21715;-75
2022/12/12 13:05:55;;;;;;;12.57;6.53;;;3.80;68.90;;;;;;2338183;54;20955;-74
2022/12/12 13:08:28;;;;;;;13.68;6.70;;;3.80;68.70;;;;;;2338487;54;20903;-74
2022/12/12 13:10:58;;;;;;;12.90;6.85;;;3.80;68.60;;;;;;2338400;54;21319;-75
2022/12/12 13:13:33;;;;;;;11.90;6.37;;;3.80;68.50;;;;;;2353277;53;20983;-75
2022/12/12 13:16:10;;;;;;;13.65;7.40;;;3.80;68.40;;;;;;2338306;54;20907;-74
2022/12/12 13:18:40;;;;;;;14.48;6.85;;;3.80;68.40;;;;;;2339225;54;21109;-74
2022/12/12 13:21:54;;;;;;;13.10;6.90;;;3.80;68.50;;;;;;2583893;53;20916;-73
2022/12/12 13:24:52;;;;;;;14.55;6.87;;;3.80;67.70;;;;;;2424080;53;21483;-73
2022/12/12 13:27:28;;;;;;;13.60;6.80;;;3.90;67.90;;;;;;2344612;53;21813;-74
2022/12/12 13:30:21;;;;;;;16.08;7.40;;;3.80;68.20;;;;;;2338383;54;20910;-74
2022/12/12 13:33:50;;;;;;;13.62;6.97;;;3.80;68.00;;;;;;2577656;53;21019;-74
2022/12/12 13:36:22;;;;;;;11.80;6.00;;;3.80;67.80;;;;;;2380330;53;21337;-72
2022/12/12 13:38:59;;;;;;;14.50;6.97;;;3.80;68.20;;;;;;2338399;54;20963;-75
2022/12/12 13:41:26;;;;;;;12.93;6.18;;;3.80;68.30;;;;;;2531154;53;20991;-75
2022/12/12 13:43:57;;;;;;;11.63;6.12;;;3.80;68.40;;;;;;2338489;54;21811;-74
2022/12/12 13:46:34;;;;;;;11.60;6.00;;;3.80;68.40;;;;;;2522211;53;20919;-74
2022/12/12 13:49:24;;;;;;;13.82;7.15;;;3.80;68.30;;;;;;2339156;54;20883;-73
2022/12/12 13:54:04;;;;;;;13.80;7.00;;;3.80;68.20;;;;;;2421904;53;20974;-75
2022/12/12 13:56:39;;;;;;;13.50;7.05;;;3.80;68.00;;;;;;2338702;54;20927;-74
2022/12/12 14:02:37;;;;;;;13.40;6.62;;;3.80;68.20;;;;;;2339638;53;20915;-73
2022/12/12 14:05:20;;;;;;;17.55;9.48;;;3.90;67.50;;;;;;2584428;53;20994;-75
2022/12/12 14:07:51;;;;;;;12.05;6.50;;;3.90;68.60;;;;;;2535220;53;20919;-75
2022/12/12 14:10:30;;;;;;;14.30;7.18;;;3.90;68.70;;;;;;2339266;54;21441;-75
2022/12/12 14:13:15;;;;;;;13.50;6.90;;;3.90;68.60;;;;;;2415970;53;21880;-74
2022/12/12 14:15:42;;;;;;;13.50;6.90;;;3.90;68.70;;;;;;2339058;54;20934;-74
2022/12/12 14:18:19;;;;;;;12.80;6.65;;;3.90;69.00;;;;;;2584219;53;20907;-74
2022/12/12 14:20:59;;;;;;;15.90;7.40;;;3.90;68.90;;;;;;2338761;54;21531;-73
2022/12/12 14:23:31;;;;;;;12.52;7.03;;;4.00;68.90;;;;;;2420050;53;21389;-73